createdAt,value
2023-04-26T00:00:36.586Z,9.20
2023-04-26T00:03:05.132Z,9.10
2023-04-26T00:05:35.208Z,9.10
2023-04-26T00:08:04.230Z,9.10
2023-04-26T00:10:32.816Z,9.00
2023-04-26T00:13:01.135Z,9.00
2023-04-26T00:15:29.530Z,8.90
2023-04-26T00:17:57.930Z,9.00
2023-04-26T00:20:26.245Z,8.90
2023-04-26T00:22:55.977Z,8.90
2023-04-26T00:25:24.364Z,8.80
2023-04-26T00:27:53.636Z,8.80
2023-04-26T00:30:22.479Z,8.80
2023-04-26T00:32:51.261Z,8.90
2023-04-26T00:35:19.709Z,8.90
2023-04-26T00:37:48.221Z,8.90
2023-04-26T00:40:18.123Z,8.90
2023-04-26T00:42:46.697Z,8.90
2023-04-26T00:45:15.269Z,8.80
2023-04-26T00:47:43.892Z,8.70
2023-04-26T00:50:12.538Z,8.70
2023-04-26T00:52:41.057Z,8.60
2023-04-26T00:55:10.484Z,8.60
2023-04-26T00:57:40.998Z,8.60
2023-04-26T01:00:10.711Z,8.60
2023-04-26T01:02:39.238Z,8.60
2023-04-26T01:05:08.942Z,8.60
2023-04-26T01:07:39.642Z,8.60
2023-04-26T01:10:09.547Z,8.60
2023-04-26T01:12:40.280Z,8.50
2023-04-26T01:15:09.883Z,8.50
2023-04-26T01:17:38.873Z,8.40
2023-04-26T01:20:09.945Z,8.50
2023-04-26T01:22:39.682Z,8.40
2023-04-26T01:25:09.376Z,8.40
2023-04-26T01:27:37.788Z,8.50
2023-04-26T01:30:07.328Z,8.50
2023-04-26T01:32:36.049Z,8.50
2023-04-26T01:35:05.638Z,8.40
2023-04-26T01:37:34.074Z,8.40
2023-04-26T01:40:06.442Z,8.30
2023-04-26T01:42:34.843Z,8.30
2023-04-26T01:45:03.247Z,8.20
2023-04-26T01:47:51.608Z,8.30
2023-04-26T01:50:20.217Z,8.20
2023-04-26T01:52:48.521Z,8.20
2023-04-26T01:55:18.394Z,8.20
2023-04-26T01:57:46.715Z,8.20
2023-04-26T02:00:15.594Z,8.10
2023-04-26T02:02:44.117Z,8.10
2023-04-26T02:05:13.292Z,8.10
2023-04-26T02:07:41.652Z,8.10
2023-04-26T02:10:10.720Z,8.10
2023-04-26T02:12:40.709Z,8.20
2023-04-26T02:15:10.441Z,8.20
2023-04-26T02:17:39.859Z,8.20
2023-04-26T02:20:10.426Z,8.20
2023-04-26T02:22:38.886Z,8.10
2023-04-26T02:25:08.614Z,8.00
2023-04-26T02:27:37.144Z,7.90
2023-04-26T02:30:08.367Z,7.90
2023-04-26T02:32:36.809Z,7.90
2023-04-26T02:35:06.837Z,7.90
2023-04-26T02:37:35.253Z,7.80
2023-04-26T02:40:05.495Z,7.80
2023-04-26T02:42:34.050Z,7.70
2023-04-26T02:45:02.483Z,7.70
2023-04-26T02:47:32.645Z,7.80
2023-04-26T02:50:01.043Z,7.70
2023-04-26T02:52:30.519Z,7.80
2023-04-26T02:54:58.951Z,7.70
2023-04-26T02:57:27.564Z,7.80
2023-04-26T02:59:56.620Z,7.70
2023-04-26T03:02:25.716Z,7.70
2023-04-26T03:04:56.836Z,7.70
2023-04-26T03:07:25.259Z,7.60
2023-04-26T03:09:53.660Z,7.70
2023-04-26T03:12:22.081Z,7.70
2023-04-26T03:14:50.415Z,7.70
2023-04-26T03:17:19.351Z,7.70
2023-04-26T03:19:47.754Z,7.70
2023-04-26T03:22:18.300Z,7.70
2023-04-26T03:24:47.630Z,7.70
2023-04-26T03:27:16.653Z,7.70
2023-04-26T03:29:45.704Z,7.70
2023-04-26T03:32:14.386Z,7.60
2023-04-26T03:34:43.044Z,7.60
2023-04-26T03:37:11.381Z,7.60
2023-04-26T03:39:41.741Z,7.60
2023-04-26T03:42:11.286Z,7.60
2023-04-26T03:44:40.537Z,7.60
2023-04-26T03:47:08.938Z,7.50
2023-04-26T03:49:37.343Z,7.50
2023-04-26T03:52:05.768Z,7.50
2023-04-26T03:54:35.093Z,7.40
2023-04-26T03:57:04.955Z,7.40
2023-04-26T03:59:33.342Z,7.50
2023-04-26T04:02:01.719Z,7.50
2023-04-26T04:04:30.297Z,7.50
2023-04-26T04:06:58.745Z,7.40
2023-04-26T04:09:27.126Z,7.40
2023-04-26T04:11:55.688Z,7.40
2023-04-26T04:14:26.114Z,7.40
2023-04-26T04:16:54.505Z,7.40
2023-04-26T04:19:22.870Z,7.40
2023-04-26T04:21:51.865Z,7.50
2023-04-26T04:24:21.251Z,7.50
2023-04-26T04:26:50.034Z,7.50
2023-04-26T04:29:18.434Z,7.50
2023-04-26T04:31:48.230Z,7.50
2023-04-26T04:34:17.303Z,7.50
2023-04-26T04:36:46.843Z,7.60
2023-04-26T04:39:16.549Z,7.60
2023-04-26T04:41:48.846Z,7.70
2023-04-26T04:44:19.529Z,7.70
2023-04-26T04:46:49.323Z,7.80
2023-04-26T04:49:18.748Z,7.70
2023-04-26T04:51:47.338Z,7.80
2023-04-26T04:54:17.654Z,7.80
2023-04-26T04:56:48.250Z,7.90
2023-04-26T04:59:18.090Z,7.90
2023-04-26T05:01:47.455Z,8.00
2023-04-26T05:04:18.778Z,8.20
2023-04-26T05:06:47.368Z,8.30
2023-04-26T05:09:15.769Z,8.30
2023-04-26T05:11:44.167Z,8.30
2023-04-26T05:14:13.534Z,8.40
2023-04-26T05:16:42.189Z,8.60
2023-04-26T05:19:10.796Z,8.70
2023-04-26T05:21:40.787Z,8.90
2023-04-26T05:24:09.225Z,9.10
2023-04-26T05:26:38.579Z,9.20
2023-04-26T05:29:18.859Z,10.40
2023-04-26T05:32:09.506Z,13.80
2023-04-26T05:34:41.345Z,16.80
2023-04-26T05:37:14.580Z,19.50
2023-04-26T05:39:44.006Z,21.50
2023-04-26T05:42:12.567Z,23.00
2023-04-26T05:44:41.863Z,24.30
2023-04-26T05:47:10.715Z,25.50
2023-04-26T05:49:39.117Z,25.90
2023-04-26T05:52:07.558Z,26.70
2023-04-26T05:54:37.812Z,27.30
2023-04-26T05:57:06.804Z,27.80
2023-04-26T05:59:37.587Z,28.20
2023-04-26T06:02:06.730Z,28.60
2023-04-26T06:04:35.295Z,28.90
2023-04-26T06:07:09.972Z,29.10
2023-04-26T06:09:39.706Z,29.50
2023-04-26T06:12:08.406Z,29.50
2023-04-26T06:14:41.223Z,29.60
2023-04-26T06:17:15.393Z,30.20
2023-04-26T06:19:44.560Z,30.50
2023-04-26T06:22:13.702Z,30.20
2023-04-26T06:24:43.420Z,29.70
2023-04-26T06:27:11.899Z,30.10
2023-04-26T06:29:43.778Z,30.50
2023-04-26T06:32:12.918Z,30.40
2023-04-26T06:34:41.637Z,31.20
2023-04-26T06:37:10.023Z,30.90
2023-04-26T06:39:43.437Z,31.10
2023-04-26T06:42:13.422Z,31.20
2023-04-26T06:45:00.163Z,31.00
2023-04-26T06:47:28.640Z,31.00
2023-04-26T06:49:56.970Z,31.10
2023-04-26T06:52:25.282Z,31.10
2023-04-26T06:54:57.600Z,31.20
2023-04-26T06:57:26.272Z,31.00
2023-04-26T06:59:54.638Z,30.70
2023-04-26T07:02:24.568Z,30.90
2023-04-26T07:04:53.874Z,31.10
2023-04-26T07:07:22.770Z,31.40
2023-04-26T07:09:51.198Z,30.50
2023-04-26T07:12:21.175Z,30.70
2023-04-26T07:14:49.517Z,30.90
2023-04-26T07:17:17.864Z,31.10
2023-04-26T07:19:46.192Z,31.20
2023-04-26T07:22:14.490Z,31.30
2023-04-26T07:24:42.813Z,31.50
2023-04-26T07:27:11.292Z,31.40
2023-04-26T07:29:41.230Z,31.00
2023-04-26T07:32:10.001Z,31.50
2023-04-26T07:34:38.417Z,30.90
2023-04-26T07:37:07.191Z,31.10
2023-04-26T07:39:35.554Z,31.40
2023-04-26T07:42:04.088Z,31.20
2023-04-26T07:44:32.501Z,30.40
2023-04-26T07:47:02.200Z,30.50
2023-04-26T07:49:30.547Z,31.50
2023-04-26T07:52:02.165Z,31.40
2023-04-26T07:54:31.015Z,30.80
2023-04-26T07:56:59.367Z,30.20
2023-04-26T07:59:27.800Z,30.50
2023-04-26T08:01:56.238Z,30.20
2023-04-26T08:04:34.883Z,30.30
2023-04-26T08:07:03.515Z,30.20
2023-04-26T08:09:32.111Z,29.60
2023-04-26T08:12:00.531Z,29.30
2023-04-26T08:14:30.245Z,28.50
2023-04-26T08:16:58.577Z,27.90
2023-04-26T08:19:30.819Z,27.20
2023-04-26T08:22:01.031Z,26.50
2023-04-26T08:24:29.509Z,26.10
2023-04-26T08:26:58.941Z,25.10
2023-04-26T08:29:27.953Z,24.20
2023-04-26T08:31:56.691Z,23.90
2023-04-26T08:34:25.034Z,23.30
2023-04-26T08:36:53.444Z,23.10
2023-04-26T08:39:23.322Z,22.90
2023-04-26T08:41:55.663Z,22.30
2023-04-26T08:44:25.726Z,22.00
2023-04-26T08:47:05.394Z,21.90
2023-04-26T08:49:41.383Z,22.50
2023-04-26T08:52:11.591Z,22.70
2023-04-26T08:54:42.249Z,22.20
2023-04-26T08:57:10.918Z,21.60
2023-04-26T08:59:39.807Z,21.20
2023-04-26T09:02:09.074Z,21.50
2023-04-26T09:04:38.529Z,22.00
2023-04-26T09:07:09.568Z,22.40
2023-04-26T09:09:44.971Z,22.60
2023-04-26T09:12:13.383Z,22.30
2023-04-26T09:14:41.785Z,21.70
2023-04-26T09:17:28.557Z,21.30
2023-04-26T09:19:56.943Z,21.70
2023-04-26T09:22:33.040Z,21.90
2023-04-26T09:25:04.265Z,22.20
2023-04-26T09:27:37.923Z,22.30
2023-04-26T09:30:10.509Z,21.50
2023-04-26T09:32:51.179Z,21.40
2023-04-26T09:35:26.044Z,21.80
2023-04-26T09:38:00.041Z,21.60
2023-04-26T09:40:34.273Z,21.40
2023-04-26T09:43:04.255Z,21.70
2023-04-26T09:45:34.147Z,21.30
2023-04-26T09:48:16.929Z,20.90
2023-04-26T09:50:46.364Z,20.40
2023-04-26T09:53:31.017Z,20.50
2023-04-26T09:56:09.393Z,20.40
2023-04-26T09:58:38.940Z,20.40
2023-04-26T10:01:10.099Z,20.70
2023-04-26T10:03:38.763Z,20.70
2023-04-26T10:06:07.952Z,20.40
2023-04-26T10:08:37.523Z,20.00
2023-04-26T10:11:10.487Z,19.70
2023-04-26T10:13:39.217Z,19.70
2023-04-26T10:16:07.981Z,19.60
2023-04-26T10:18:36.806Z,19.80
2023-04-26T10:21:09.325Z,20.00
2023-04-26T10:23:38.497Z,20.10
2023-04-26T10:26:08.673Z,20.00
2023-04-26T10:29:02.095Z,20.00
2023-04-26T10:32:17.309Z,19.90
2023-04-26T10:35:11.002Z,19.60
2023-04-26T10:38:01.353Z,19.40
2023-04-26T10:40:33.199Z,19.70
2023-04-26T10:43:32.918Z,19.80
2023-04-26T10:46:37.335Z,19.70
2023-04-26T10:49:17.064Z,19.90
2023-04-26T10:52:12.562Z,19.90
2023-04-26T10:54:55.816Z,19.80
2023-04-26T10:57:25.393Z,19.80
2023-04-26T11:00:31.764Z,19.80
2023-04-26T11:03:05.250Z,19.80
2023-04-26T11:05:51.932Z,20.00
2023-04-26T11:08:21.764Z,20.10
2023-04-26T11:10:59.011Z,20.00
2023-04-26T11:13:27.438Z,20.00
2023-04-26T11:16:03.350Z,20.20
2023-04-26T11:18:32.246Z,20.30
2023-04-26T11:21:00.848Z,20.30
2023-04-26T11:23:30.465Z,20.40
2023-04-26T11:25:59.551Z,20.50
2023-04-26T11:28:27.946Z,20.20
2023-04-26T11:30:57.661Z,20.10
2023-04-26T11:33:26.369Z,20.30
2023-04-26T11:35:57.239Z,20.20
2023-04-26T11:38:26.850Z,20.20
2023-04-26T11:40:57.821Z,20.10
2023-04-26T11:43:35.971Z,20.10
2023-04-26T11:46:06.764Z,19.80
2023-04-26T11:48:37.115Z,19.90
2023-04-26T11:51:07.874Z,19.90
2023-04-26T11:53:37.949Z,20.20
2023-04-26T11:56:14.358Z,20.30
2023-04-26T11:58:45.875Z,20.30
2023-04-26T12:01:22.013Z,20.50
2023-04-26T12:03:52.498Z,20.70
2023-04-26T12:06:21.812Z,20.60
2023-04-26T12:08:53.187Z,20.50
2023-04-26T12:11:21.793Z,20.60
2023-04-26T12:13:50.176Z,20.80
2023-04-26T12:16:26.238Z,21.00
2023-04-26T12:18:56.765Z,21.10
2023-04-26T12:21:28.181Z,20.70
2023-04-26T12:23:58.160Z,20.60
2023-04-26T12:26:43.702Z,20.50
2023-04-26T12:29:12.104Z,20.50
2023-04-26T12:31:42.070Z,20.40
2023-04-26T12:34:10.447Z,20.50
2023-04-26T12:36:40.143Z,20.60
2023-04-26T12:39:08.506Z,20.60
2023-04-26T12:41:36.899Z,20.50
2023-04-26T12:44:05.473Z,20.60
2023-04-26T12:46:33.832Z,20.70
2023-04-26T12:49:03.699Z,20.90
2023-04-26T12:51:33.869Z,21.00
2023-04-26T12:54:02.239Z,21.20
2023-04-26T12:56:31.114Z,21.50
2023-04-26T12:58:59.528Z,21.70
2023-04-26T13:01:28.058Z,21.70
2023-04-26T13:03:57.196Z,21.70
2023-04-26T13:06:27.908Z,21.70
2023-04-26T13:08:56.292Z,21.60
2023-04-26T13:11:24.862Z,21.80
2023-04-26T13:13:53.180Z,21.80
2023-04-26T13:16:21.955Z,21.80
2023-04-26T13:18:50.336Z,21.60
2023-04-26T13:21:18.861Z,21.30
2023-04-26T13:23:48.633Z,21.30
2023-04-26T13:26:18.257Z,21.40
2023-04-26T13:28:47.507Z,21.40
2023-04-26T13:31:17.150Z,21.30
2023-04-26T13:33:47.289Z,21.40
2023-04-26T13:36:16.035Z,21.30
2023-04-26T13:38:44.977Z,21.30
2023-04-26T13:41:14.891Z,21.50
2023-04-26T13:43:43.246Z,21.60
2023-04-26T13:46:11.643Z,21.50
2023-04-26T13:48:39.991Z,21.60
2023-04-26T13:51:08.596Z,21.60
2023-04-26T13:53:37.022Z,21.50
2023-04-26T13:56:06.108Z,21.60
2023-04-26T13:58:36.170Z,21.60
2023-04-26T14:01:05.661Z,21.50
2023-04-26T14:03:35.046Z,21.40
2023-04-26T14:06:03.977Z,21.60
2023-04-26T14:08:32.665Z,21.90
2023-04-26T14:11:01.132Z,22.10
2023-04-26T14:13:29.636Z,22.30
2023-04-26T14:15:59.546Z,22.40
2023-04-26T14:18:27.970Z,22.50
2023-04-26T14:20:56.309Z,22.60
2023-04-26T14:23:24.568Z,22.40
2023-04-26T14:25:53.433Z,21.90
2023-04-26T14:28:22.157Z,21.90
2023-04-26T14:30:50.544Z,21.90
2023-04-26T14:33:20.334Z,21.90
2023-04-26T14:35:48.945Z,22.00
2023-04-26T14:38:17.634Z,21.80
2023-04-26T14:40:46.458Z,21.80
2023-04-26T14:43:14.791Z,21.70
2023-04-26T14:45:45.031Z,21.70
2023-04-26T14:48:13.660Z,21.70
2023-04-26T14:50:43.337Z,21.90
2023-04-26T14:53:11.928Z,21.90
2023-04-26T14:55:40.398Z,21.90
2023-04-26T14:58:08.758Z,22.10
2023-04-26T15:00:38.078Z,22.20
2023-04-26T15:03:06.993Z,22.20
2023-04-26T15:05:35.760Z,22.10
2023-04-26T15:08:06.225Z,22.00
2023-04-26T15:10:34.465Z,22.00
2023-04-26T15:13:03.006Z,22.10
2023-04-26T15:15:31.331Z,22.20
2023-04-26T15:17:59.731Z,22.40
2023-04-26T15:20:28.148Z,22.50
2023-04-26T15:22:56.745Z,22.60
2023-04-26T15:25:26.501Z,22.70
2023-04-26T15:27:54.839Z,22.40
2023-04-26T15:30:23.348Z,22.20
2023-04-26T15:32:51.894Z,22.10
2023-04-26T15:35:20.235Z,21.90
2023-04-26T15:37:49.147Z,21.90
2023-04-26T15:40:17.601Z,21.80
2023-04-26T15:42:48.819Z,21.70
2023-04-26T15:45:17.480Z,21.70
2023-04-26T15:47:46.153Z,21.60
2023-04-26T15:50:14.923Z,21.60
2023-04-26T15:52:43.377Z,21.80
2023-04-26T15:55:12.009Z,21.90
2023-04-26T15:57:42.748Z,21.70
2023-04-26T16:00:14.319Z,21.80
2023-04-26T16:02:44.726Z,21.60
2023-04-26T16:05:13.653Z,21.40
2023-04-26T16:07:42.082Z,21.40
2023-04-26T16:10:11.682Z,21.30
2023-04-26T16:12:41.782Z,21.20
2023-04-26T16:15:12.153Z,21.40
2023-04-26T16:17:40.565Z,21.50
2023-04-26T16:20:10.523Z,21.40
2023-04-26T16:22:38.948Z,21.30
2023-04-26T16:25:08.086Z,21.30
2023-04-26T16:27:36.797Z,21.30
2023-04-26T16:30:05.817Z,21.10
2023-04-26T16:32:35.551Z,21.00
2023-04-26T16:35:05.147Z,20.90
2023-04-26T16:37:33.526Z,20.80
2023-04-26T16:40:02.012Z,20.80
2023-04-26T16:42:31.992Z,20.70
2023-04-26T16:45:00.380Z,20.40
2023-04-26T16:47:28.790Z,20.40
2023-04-26T16:49:58.673Z,20.30
2023-04-26T16:52:26.955Z,20.30
2023-04-26T16:54:55.285Z,20.40
2023-04-26T16:57:23.605Z,20.30
2023-04-26T16:59:52.587Z,20.20
2023-04-26T17:02:21.557Z,20.10
2023-04-26T17:04:50.505Z,19.90
2023-04-26T17:07:20.627Z,19.80
2023-04-26T17:09:49.158Z,19.60
2023-04-26T17:12:17.514Z,19.50
2023-04-26T17:14:46.093Z,19.50
2023-04-26T17:17:14.422Z,19.40
2023-04-26T17:19:42.865Z,19.30
2023-04-26T17:22:11.395Z,19.30
2023-04-26T17:24:41.131Z,19.30
2023-04-26T17:27:09.796Z,19.20
2023-04-26T17:29:38.079Z,19.10
2023-04-26T17:32:06.844Z,19.10
2023-04-26T17:34:35.211Z,19.10
2023-04-26T17:37:03.551Z,18.90
2023-04-26T17:39:32.014Z,18.80
2023-04-26T17:42:03.178Z,18.70
2023-04-26T17:44:31.553Z,18.70
2023-04-26T17:46:59.904Z,18.60
2023-04-26T17:49:28.741Z,18.50
2023-04-26T17:51:57.092Z,18.50
2023-04-26T17:54:25.457Z,18.30
2023-04-26T17:56:53.814Z,18.20
2023-04-26T17:59:23.482Z,18.20
2023-04-26T18:01:51.884Z,18.20
2023-04-26T18:04:20.423Z,18.20
2023-04-26T18:06:49.615Z,18.10
2023-04-26T18:09:17.970Z,18.00
2023-04-26T18:11:47.932Z,17.90
2023-04-26T18:14:16.418Z,17.80
2023-04-26T18:16:46.343Z,17.70
2023-04-26T18:19:14.746Z,17.70
2023-04-26T18:21:43.074Z,17.50
2023-04-26T18:24:11.392Z,17.50
2023-04-26T18:26:41.166Z,17.40
2023-04-26T18:29:09.543Z,17.40
2023-04-26T18:31:37.937Z,17.40
2023-04-26T18:34:07.996Z,17.30
2023-04-26T18:36:36.468Z,17.30
2023-04-26T18:39:05.534Z,17.20
2023-04-26T18:41:33.961Z,17.30
2023-04-26T18:44:02.299Z,17.30
2023-04-26T18:46:30.694Z,17.20
2023-04-26T18:48:59.088Z,17.20
2023-04-26T18:51:28.899Z,17.10
2023-04-26T18:53:57.239Z,17.10
2023-04-26T18:56:25.718Z,17.10
2023-04-26T18:58:54.488Z,17.10
2023-04-26T19:01:22.939Z,17.00
2023-04-26T19:03:51.492Z,17.00
2023-04-26T19:06:20.017Z,17.00
2023-04-26T19:08:49.692Z,16.90
2023-04-26T19:11:36.953Z,16.90
2023-04-26T19:14:05.315Z,16.80
2023-04-26T19:16:33.825Z,16.80
2023-04-26T19:19:02.257Z,16.80
2023-04-26T19:21:31.491Z,16.70
2023-04-26T19:24:02.299Z,16.70
2023-04-26T19:26:30.752Z,16.70
2023-04-26T19:28:59.255Z,16.60
2023-04-26T19:31:27.920Z,16.60
2023-04-26T19:33:57.060Z,16.60
2023-04-26T19:36:25.962Z,16.50
2023-04-26T19:38:54.362Z,16.50
2023-04-26T19:41:25.072Z,16.50
2023-04-26T19:43:53.493Z,16.50
2023-04-26T19:46:21.958Z,16.50
2023-04-26T19:48:50.444Z,16.50
2023-04-26T19:51:19.544Z,16.40
2023-04-26T19:53:48.010Z,16.40
2023-04-26T19:56:16.654Z,16.40
2023-04-26T19:58:46.428Z,16.40
2023-04-26T20:01:14.918Z,16.40
2023-04-26T20:03:43.614Z,16.40
2023-04-26T20:06:14.059Z,16.40
2023-04-26T20:08:42.492Z,16.40
2023-04-26T20:11:15.192Z,16.40
2023-04-26T20:13:43.625Z,16.40
2023-04-26T20:16:13.800Z,16.40
2023-04-26T20:18:42.322Z,16.40
2023-04-26T20:21:10.798Z,16.40
2023-04-26T20:23:39.162Z,16.40
2023-04-26T20:26:07.549Z,16.30
2023-04-26T20:28:37.514Z,16.30
2023-04-26T20:31:07.656Z,16.30
2023-04-26T20:33:37.498Z,16.20
2023-04-26T20:36:06.211Z,16.20
2023-04-26T20:38:34.562Z,16.10
2023-04-26T20:41:02.893Z,16.00
2023-04-26T20:43:31.174Z,15.90
2023-04-26T20:45:59.630Z,15.90
2023-04-26T20:48:28.038Z,15.80
2023-04-26T20:50:58.789Z,15.70
2023-04-26T20:53:27.109Z,15.70
2023-04-26T20:55:55.520Z,15.60
2023-04-26T20:58:24.300Z,15.50
2023-04-26T21:00:53.925Z,15.50
2023-04-26T21:03:22.822Z,15.40
2023-04-26T21:05:51.378Z,15.40
2023-04-26T21:08:21.126Z,15.30
2023-04-26T21:10:49.467Z,15.20
2023-04-26T21:13:17.956Z,15.10
2023-04-26T21:15:47.212Z,15.00
2023-04-26T21:18:15.780Z,14.90
2023-04-26T21:20:44.086Z,14.80
2023-04-26T21:23:12.511Z,14.70
2023-04-26T21:25:46.416Z,14.70
2023-04-26T21:28:15.147Z,14.60
2023-04-26T21:30:43.494Z,14.50
2023-04-26T21:33:12.501Z,14.50
2023-04-26T21:35:40.964Z,14.40
2023-04-26T21:38:09.322Z,14.40
2023-04-26T21:40:37.630Z,14.30
2023-04-26T21:43:07.302Z,14.20
2023-04-26T21:45:35.902Z,14.20
2023-04-26T21:48:04.879Z,14.20
2023-04-26T21:50:33.494Z,14.10
2023-04-26T21:53:01.823Z,14.00
2023-04-26T21:55:30.134Z,14.00
2023-04-26T21:57:58.481Z,13.90
2023-04-26T22:00:28.358Z,13.80
2023-04-26T22:02:56.980Z,13.70
2023-04-26T22:05:26.004Z,13.70
2023-04-26T22:07:54.826Z,13.60
2023-04-26T22:10:23.170Z,13.60
2023-04-26T22:12:51.522Z,13.60
2023-04-26T22:15:19.867Z,13.60
2023-04-26T22:17:49.635Z,13.60
2023-04-26T22:20:18.088Z,13.70
2023-04-26T22:22:46.639Z,13.60
2023-04-26T22:25:15.062Z,13.60
2023-04-26T22:27:43.376Z,13.40
2023-04-26T22:30:24.017Z,13.40
2023-04-26T22:32:57.816Z,13.30
2023-04-26T22:35:27.670Z,13.30
2023-04-26T22:37:56.246Z,13.30
2023-04-26T22:40:24.653Z,13.20
2023-04-26T22:42:54.005Z,13.20
2023-04-26T22:45:22.846Z,13.10
2023-04-26T22:47:51.468Z,13.10
2023-04-26T22:50:21.666Z,13.00
2023-04-26T22:52:50.996Z,12.90
2023-04-26T22:55:19.375Z,12.80
2023-04-26T22:57:48.041Z,12.70
2023-04-26T23:00:16.678Z,12.70
2023-04-26T23:02:45.158Z,12.70
2023-04-26T23:05:13.858Z,12.70
2023-04-26T23:07:43.606Z,12.70
2023-04-26T23:10:12.456Z,12.70
2023-04-26T23:12:41.755Z,12.60
2023-04-26T23:15:11.732Z,12.50
2023-04-26T23:17:41.758Z,12.50
2023-04-26T23:20:15.834Z,12.40
2023-04-26T23:22:45.546Z,12.40
2023-04-26T23:25:13.865Z,12.40
2023-04-26T23:27:42.148Z,12.40
2023-04-26T23:30:11.405Z,12.30
2023-04-26T23:32:39.785Z,12.30
2023-04-26T23:35:08.826Z,12.30
2023-04-26T23:37:37.261Z,12.20
2023-04-26T23:40:09.580Z,12.30
2023-04-26T23:42:38.078Z,12.20
2023-04-26T23:45:07.872Z,12.10
2023-04-26T23:47:36.289Z,12.10
2023-04-26T23:50:04.982Z,12.10
2023-04-26T23:52:33.419Z,12.00
2023-04-26T23:55:01.790Z,11.90
2023-04-26T23:57:32.212Z,11.80
